createdAt,value
2023-02-27T00:02:46.250Z,100557.22
2023-02-27T00:06:47.931Z,100542.88
2023-02-27T00:10:50.585Z,100545.16
2023-02-27T00:14:52.041Z,100538.22
2023-02-27T00:18:53.582Z,100535.38
2023-02-27T00:22:55.118Z,100532.66
2023-02-27T00:26:56.649Z,100539.34
2023-02-27T00:30:58.470Z,100544.75
2023-02-27T00:35:00.122Z,100535.28
2023-02-27T00:39:01.673Z,100545.06
2023-02-27T00:43:03.775Z,100535.59
2023-02-27T00:47:05.405Z,100540.59
2023-02-27T00:51:07.328Z,100538.19
2023-02-27T00:55:09.607Z,100544.59
2023-02-27T00:59:11.126Z,100534.63
2023-02-27T01:03:12.718Z,100538.34
2023-02-27T01:07:14.397Z,100537.94
2023-02-27T01:11:15.938Z,100539.94
2023-02-27T01:15:17.828Z,100533.25
2023-02-27T01:19:19.481Z,100536.09
2023-02-27T01:23:22.116Z,100543.78
2023-02-27T01:27:24.377Z,100538.38
2023-02-27T01:31:26.258Z,100538.69
2023-02-27T01:35:29.777Z,100538.16
2023-02-27T01:39:32.994Z,100534.06
2023-02-27T01:43:52.972Z,100541.75
2023-02-27T01:48:01.019Z,100530.81
2023-02-27T01:52:07.945Z,100536.91
2023-02-27T01:56:36.302Z,100530.25
2023-02-27T02:00:38.881Z,100538.22
2023-02-27T02:04:41.157Z,100534.56
2023-02-27T02:08:46.656Z,100536.53
2023-02-27T02:12:48.596Z,100540.25
2023-02-27T02:17:12.858Z,100538.56
2023-02-27T02:21:32.718Z,100534.38
2023-02-27T02:25:55.533Z,100541.34
2023-02-27T02:30:12.798Z,100531.84
2023-02-27T02:34:45.323Z,100532.69
2023-02-27T02:38:51.671Z,100531.00
2023-02-27T02:43:19.813Z,100531.44
2023-02-27T02:47:36.522Z,100530.75
2023-02-27T02:51:49.253Z,100535.44
2023-02-27T02:55:53.405Z,100535.44
2023-02-27T03:00:07.959Z,100531.44
2023-02-27T03:04:15.834Z,100525.19
2023-02-27T03:08:24.784Z,100529.75
2023-02-27T03:12:27.952Z,100529.22
2023-02-27T03:16:36.200Z,100526.22
2023-02-27T03:20:43.035Z,100534.59
2023-02-27T03:24:47.107Z,100537.00
2023-02-27T03:29:06.489Z,100536.00
2023-02-27T03:33:15.333Z,100526.88
2023-02-27T03:37:41.901Z,100539.94
2023-02-27T03:41:57.506Z,100533.59
2023-02-27T03:46:24.746Z,100545.41
2023-02-27T03:50:27.044Z,100546.53
2023-02-27T03:54:34.687Z,100552.06
2023-02-27T03:58:36.386Z,100561.19
2023-02-27T04:02:39.844Z,100557.66
2023-02-27T04:07:07.307Z,100566.03
2023-02-27T04:11:30.500Z,100569.56
2023-02-27T04:16:09.841Z,100573.28
2023-02-27T04:20:27.092Z,100582.66
2023-02-27T04:24:52.449Z,100577.84
2023-02-27T04:28:59.769Z,100588.94
2023-02-27T04:33:17.606Z,100593.50
2023-02-27T04:37:26.160Z,100598.16
2023-02-27T04:41:34.843Z,100600.88
2023-02-27T04:45:41.334Z,100599.44
2023-02-27T04:49:57.169Z,100603.69
2023-02-27T04:54:01.632Z,100609.69
2023-02-27T04:58:10.323Z,100608.84
2023-02-27T05:02:25.020Z,100609.13
2023-02-27T05:06:31.487Z,100609.53
2023-02-27T05:10:58.760Z,100614.50
2023-02-27T05:15:07.971Z,100614.38
2023-02-27T05:19:10.638Z,100613.00
2023-02-27T05:23:21.235Z,100620.38
2023-02-27T05:27:33.534Z,100612.69
2023-02-27T05:31:52.783Z,100614.81
2023-02-27T05:36:06.285Z,100616.13
2023-02-27T05:40:10.918Z,100622.78
2023-02-27T05:44:19.238Z,100619.41
2023-02-27T05:48:28.512Z,100631.72
2023-02-27T05:52:31.872Z,100625.78
2023-02-27T05:56:36.026Z,100626.06
2023-02-27T06:00:46.734Z,100626.50
2023-02-27T06:04:48.314Z,100628.75
2023-02-27T06:08:50.499Z,100640.81
2023-02-27T06:12:52.887Z,100644.22
2023-02-27T06:16:54.650Z,100651.16
2023-02-27T06:20:56.469Z,100658.41
2023-02-27T06:24:58.154Z,100659.69
2023-02-27T06:29:00.865Z,100669.63
2023-02-27T06:33:02.982Z,100672.59
2023-02-27T06:37:05.387Z,100684.69
2023-02-27T06:41:07.539Z,100677.72
2023-02-27T06:45:10.538Z,100688.09
2023-02-27T06:49:14.582Z,100688.66
2023-02-27T06:53:17.834Z,100693.06
2023-02-27T06:57:21.848Z,100695.59
2023-02-27T07:01:26.845Z,100691.47
2023-02-27T07:05:28.481Z,100697.03
2023-02-27T07:09:30.841Z,100695.59
2023-02-27T07:13:35.816Z,100696.88
2023-02-27T07:17:41.807Z,100701.41
2023-02-27T07:21:43.374Z,100699.97
2023-02-27T07:25:47.068Z,100700.53
2023-02-27T07:29:50.316Z,100701.59
2023-02-27T07:33:53.173Z,100700.88
2023-02-27T07:37:54.807Z,100688.63
2023-02-27T07:41:56.345Z,100684.13
2023-02-27T07:45:58.756Z,100694.59
2023-02-27T07:50:01.117Z,100691.38
2023-02-27T07:54:03.791Z,100694.34
2023-02-27T07:58:09.477Z,100690.69
2023-02-27T08:02:13.591Z,100695.56
2023-02-27T08:06:15.238Z,100683.34
2023-02-27T08:10:17.563Z,100675.91
2023-02-27T08:14:20.541Z,100688.28
2023-02-27T08:18:24.775Z,100693.13
2023-02-27T08:22:27.275Z,100691.56
2023-02-27T08:26:31.318Z,100689.38
2023-02-27T08:30:34.050Z,100698.47
2023-02-27T08:34:36.728Z,100695.09
2023-02-27T08:38:38.292Z,100704.88
2023-02-27T08:42:40.383Z,100706.31
2023-02-27T08:46:42.050Z,100699.75
2023-02-27T08:50:46.737Z,100718.59
2023-02-27T08:54:48.536Z,100712.00
2023-02-27T08:58:50.681Z,100719.66
2023-02-27T09:02:53.872Z,100714.56
2023-02-27T09:06:57.439Z,100725.09
2023-02-27T09:11:00.678Z,100718.28
2023-02-27T09:15:03.674Z,100714.53
2023-02-27T09:19:07.776Z,100709.78
2023-02-27T09:23:09.579Z,100716.41
2023-02-27T09:27:11.426Z,100714.69
2023-02-27T09:31:13.456Z,100715.53
2023-02-27T09:35:20.307Z,100720.44
2023-02-27T09:39:22.065Z,100727.72
2023-02-27T09:43:34.680Z,100714.03
2023-02-27T09:47:42.691Z,100721.22
2023-02-27T09:51:44.695Z,100717.59
2023-02-27T09:55:48.663Z,100727.28
2023-02-27T10:00:26.904Z,100728.44
2023-02-27T10:04:39.959Z,100733.00
2023-02-27T10:08:42.666Z,100736.66
2023-02-27T10:13:03.647Z,100734.94
2023-02-27T10:17:14.644Z,100722.19
2023-02-27T10:21:22.706Z,100734.19
2023-02-27T10:25:31.814Z,100736.44
2023-02-27T10:29:37.801Z,100731.88
2023-02-27T10:33:42.822Z,100740.28
2023-02-27T10:37:50.731Z,100736.44
2023-02-27T10:41:52.774Z,100730.31
2023-02-27T10:45:56.711Z,100724.63
2023-02-27T10:50:00.585Z,100713.81
2023-02-27T10:54:20.862Z,100715.81
2023-02-27T10:58:23.181Z,100737.56
2023-02-27T11:02:37.086Z,100725.16
2023-02-27T11:06:39.649Z,100718.50
2023-02-27T11:10:56.605Z,100714.53
2023-02-27T11:15:22.049Z,100726.75
2023-02-27T11:19:31.899Z,100724.06
2023-02-27T11:23:34.619Z,100710.41
2023-02-27T11:27:36.290Z,100722.22
2023-02-27T11:31:40.762Z,100708.81
2023-02-27T11:35:51.110Z,100708.06
2023-02-27T11:40:15.648Z,100700.28
2023-02-27T11:44:25.754Z,100687.91
2023-02-27T11:49:01.195Z,100700.22
2023-02-27T11:53:24.085Z,100700.63
2023-02-27T11:57:38.768Z,100700.88
2023-02-27T12:02:05.618Z,100708.59
2023-02-27T12:06:17.630Z,100703.59
2023-02-27T12:10:27.982Z,100700.91
2023-02-27T12:15:15.594Z,100683.34
2023-02-27T12:19:39.718Z,100685.66
2023-02-27T12:23:47.139Z,100685.38
2023-02-27T12:28:04.607Z,100669.16
2023-02-27T12:32:25.833Z,100671.47
2023-02-27T12:36:30.579Z,100665.38
2023-02-27T12:40:44.593Z,100662.56
2023-02-27T12:44:55.587Z,100661.50
2023-02-27T12:49:19.592Z,100666.41
2023-02-27T12:53:53.301Z,100663.25
2023-02-27T12:58:20.183Z,100667.56
2023-02-27T13:02:39.270Z,100658.03
2023-02-27T13:06:49.119Z,100662.03
2023-02-27T13:11:14.302Z,100659.13
2023-02-27T13:15:25.548Z,100654.81
2023-02-27T13:19:33.625Z,100648.81
2023-02-27T13:23:49.962Z,100655.22
2023-02-27T13:28:02.766Z,100650.19
2023-02-27T13:32:32.769Z,100647.88
2023-02-27T13:36:48.490Z,100652.81
2023-02-27T13:40:50.943Z,100652.53
2023-02-27T13:44:58.645Z,100650.44
2023-02-27T13:49:20.018Z,100648.75
2023-02-27T13:53:30.609Z,100656.56
2023-02-27T13:57:37.824Z,100657.34
2023-02-27T14:01:41.645Z,100657.03
2023-02-27T14:05:48.616Z,100651.97
2023-02-27T14:09:59.904Z,100658.81
2023-02-27T14:14:04.715Z,100680.53
2023-02-27T14:18:48.371Z,100653.28
2023-02-27T14:23:14.798Z,100652.00
2023-02-27T14:27:19.316Z,100645.06
2023-02-27T14:31:32.748Z,100655.75
2023-02-27T14:35:36.047Z,100636.47
2023-02-27T14:39:38.098Z,100639.88
2023-02-27T14:43:45.966Z,100641.03
2023-02-27T14:47:48.644Z,100640.19
2023-02-27T14:51:50.831Z,100648.31
2023-02-27T14:55:55.882Z,100652.19
2023-02-27T14:59:58.595Z,100647.28
2023-02-27T15:04:00.651Z,100637.69
2023-02-27T15:08:06.357Z,100652.81
2023-02-27T15:12:16.085Z,100649.59
2023-02-27T15:16:23.645Z,100640.31
2023-02-27T15:20:25.577Z,100650.00
2023-02-27T15:24:49.577Z,100653.88
2023-02-27T15:28:51.895Z,100642.13
2023-02-27T15:32:55.791Z,100640.34
2023-02-27T15:36:59.796Z,100639.09
2023-02-27T15:41:03.355Z,100637.47
2023-02-27T15:45:07.083Z,100650.56
2023-02-27T15:49:16.551Z,100651.44
2023-02-27T15:53:24.693Z,100665.28
2023-02-27T15:57:26.903Z,100670.03
2023-02-27T16:01:32.440Z,100674.38
2023-02-27T16:05:36.785Z,100677.75
2023-02-27T16:09:39.670Z,100679.56
2023-02-27T16:13:41.896Z,100680.50
2023-02-27T16:18:01.531Z,100675.16
2023-02-27T16:22:22.350Z,100679.47
2023-02-27T16:26:32.115Z,100690.78
2023-02-27T16:30:33.837Z,100685.41
2023-02-27T16:34:45.498Z,100690.47
2023-02-27T16:38:47.641Z,100703.09
2023-02-27T16:42:50.688Z,100707.00
2023-02-27T16:46:54.362Z,100707.44
2023-02-27T16:50:56.500Z,100713.81
2023-02-27T16:54:59.506Z,100719.19
2023-02-27T16:59:01.580Z,100730.69
2023-02-27T17:03:03.513Z,100724.63
2023-02-27T17:07:06.672Z,100727.19
2023-02-27T17:11:09.361Z,100729.25
2023-02-27T17:15:11.385Z,100734.38
2023-02-27T17:19:16.957Z,100742.25
2023-02-27T17:23:18.941Z,100748.25
2023-02-27T17:27:20.797Z,100747.88
2023-02-27T17:31:23.215Z,100742.97
2023-02-27T17:35:25.747Z,100756.94
2023-02-27T17:39:27.816Z,100765.03
2023-02-27T17:43:30.471Z,100764.19
2023-02-27T17:47:33.572Z,100769.13
2023-02-27T17:51:35.641Z,100760.78
2023-02-27T17:55:42.019Z,100770.81
2023-02-27T17:59:43.728Z,100781.94
2023-02-27T18:03:45.836Z,100787.47
2023-02-27T18:07:48.207Z,100792.78
2023-02-27T18:11:49.859Z,100799.78
2023-02-27T18:15:52.140Z,100792.66
2023-02-27T18:19:54.428Z,100803.72
2023-02-27T18:23:57.508Z,100799.28
2023-02-27T18:27:59.386Z,100802.91
2023-02-27T18:32:00.988Z,100812.41
2023-02-27T18:36:03.458Z,100806.63
2023-02-27T18:40:06.791Z,100805.97
2023-02-27T18:44:09.447Z,100814.09
2023-02-27T18:48:11.185Z,100813.03
2023-02-27T18:52:12.789Z,100814.53
2023-02-27T18:56:17.023Z,100801.63
2023-02-27T19:00:21.594Z,100804.44
2023-02-27T19:04:25.542Z,100801.69
2023-02-27T19:08:31.666Z,100809.84
2023-02-27T19:12:35.413Z,100814.38
2023-02-27T19:16:38.868Z,100814.19
2023-02-27T19:20:40.632Z,100810.25
2023-02-27T19:24:42.418Z,100821.56
2023-02-27T19:28:44.051Z,100823.25
2023-02-27T19:32:45.718Z,100815.38
2023-02-27T19:36:48.412Z,100815.00
2023-02-27T19:40:51.378Z,100811.94
2023-02-27T19:44:54.385Z,100813.56
2023-02-27T19:49:02.377Z,100815.56
2023-02-27T19:53:04.582Z,100819.34
2023-02-27T19:57:06.383Z,100828.44
2023-02-27T20:01:09.841Z,100824.50
2023-02-27T20:05:12.175Z,100832.94
2023-02-27T20:09:17.134Z,100827.69
2023-02-27T20:13:18.956Z,100832.94
2023-02-27T20:17:20.509Z,100832.94
2023-02-27T20:21:25.677Z,100833.88
2023-02-27T20:25:29.473Z,100831.94
2023-02-27T20:29:31.911Z,100829.31
2023-02-27T20:33:33.584Z,100832.66
2023-02-27T20:37:36.383Z,100832.09
2023-02-27T20:41:38.286Z,100831.56
2023-02-27T20:45:40.663Z,100827.75
2023-02-27T20:49:42.285Z,100836.50
2023-02-27T20:53:47.364Z,100832.53
2023-02-27T20:57:49.348Z,100839.56
2023-02-27T21:01:52.920Z,100832.06
2023-02-27T21:06:00.089Z,100832.50
2023-02-27T21:10:01.797Z,100830.81
2023-02-27T21:14:12.634Z,100832.13
2023-02-27T21:18:14.977Z,100824.47
2023-02-27T21:22:17.162Z,100832.03
2023-02-27T21:26:21.824Z,100829.94
2023-02-27T21:30:23.393Z,100831.94
2023-02-27T21:34:27.365Z,100826.31
2023-02-27T21:38:29.498Z,100830.72
2023-02-27T21:42:31.713Z,100824.59
2023-02-27T21:46:34.985Z,100816.66
2023-02-27T21:50:37.231Z,100814.47
2023-02-27T21:54:39.887Z,100818.91
2023-02-27T21:58:42.011Z,100813.50
2023-02-27T22:02:43.813Z,100809.06
2023-02-27T22:06:46.128Z,100814.66
2023-02-27T22:10:47.729Z,100816.78
2023-02-27T22:14:49.829Z,100820.09
2023-02-27T22:18:51.843Z,100818.56
2023-02-27T22:22:53.428Z,100805.16
2023-02-27T22:26:55.586Z,100812.03
2023-02-27T22:31:16.191Z,100805.38
2023-02-27T22:35:17.939Z,100811.91
2023-02-27T22:39:20.060Z,100813.94
2023-02-27T22:43:21.840Z,100831.03
2023-02-27T22:47:23.416Z,100816.78
2023-02-27T22:51:27.862Z,100809.50
2023-02-27T22:55:29.832Z,100808.66
2023-02-27T22:59:31.370Z,100809.78
2023-02-27T23:03:32.988Z,100805.06
2023-02-27T23:07:35.191Z,100813.19
2023-02-27T23:11:36.826Z,100818.59
2023-02-27T23:15:39.116Z,100819.13
2023-02-27T23:19:40.853Z,100812.19
2023-02-27T23:23:43.081Z,100815.63
2023-02-27T23:27:44.643Z,100811.06
2023-02-27T23:31:46.705Z,100809.97
2023-02-27T23:35:48.493Z,100806.88
2023-02-27T23:39:50.089Z,100818.44
2023-02-27T23:44:11.805Z,100823.56
2023-02-27T23:48:13.717Z,100823.19
2023-02-27T23:52:15.256Z,100823.75
2023-02-27T23:56:18.347Z,100823.19
